Tuskahoma, OK (74574)

12:43 PM CDT on September 05, 2015 (GMT -0500)
Cricket Woods | | Change Station
CLOSE
Current Station
Personal Weather Station
Location: Wister, OK
Elevation: 682 ft
Nearby Weather Stations

Elev 682 ft 34.86 °N, 94.91 °W | Updated 11 minutes ago

Clear
Clear
102.2 °F
Feels Like 111 °F
N
3.7
Wind Variable Wind from SSW

Today
High -- | Low -- °F
--% Chance of Precip.
Yesterday
High -- | Low -- °F
Precip. -- in
6:56 AM 7:42 PM
Waning Gibbous, 47% visible
Pressure 30.01 in
Visibility 10.0 miles
Clouds Few 4200 ft
Heat Index 111 °F
Dew Point 70 °F
Humidity 36%
Rainfall 0.00 in
Snow Depth Not available.
UV 8 out of 12
Pollen 10.80 out of 12
Air Quality Not available.
Flu Activity Not available.
METAR KMLC 051653Z AUTO VRB05KT 10SM FEW042 33/22 A3004 RMK AO2 SLP163 T03280222
Pressure 30.01 in
Visibility 10.0 miles
Clouds Few 4200 ft
Heat Index 111 °F
Dew Point 70 °F
Humidity 36%
Rainfall 0.00 in
Snow Depth Not available.
UV 8 out of 12
Pollen 10.80 out of 12
Air Quality Not available.
Flu Activity Not available.
METAR KMLC 051653Z AUTO VRB05KT 10SM FEW042 33/22 A3004 RMK AO2 SLP163 T03280222

10-Day Weather Forecast

×

Almanac

Astronomy

Sep. 05, 2015 Rise Set
Actual Time
Civil Twilight
Nautical Twilight
Astronomical Twilight
Moon
Length of Visible Light
Length of Day
Tomorrow will be .
, % of the Moon is Illuminated

Today's Extremes

State Highs State Lows

Community

WunderPhotos

Upload Photos

1,852,508 photos uploaded!

WunderBlogs® & News

Nearby

Air Quality

  Air Quality AQ Index Pollutant
Not available.

Snow Depth

Station Depth Elevation

Earthquake Activity

City Distance Mag. Time & Date
Minimum magnitude displayed is 2.5.

Coastal Water Temperatures

Place Temperature

Stations

Nearby Weather Stations

Station Location Temp. Windchill Dew Point Humidity Wind Precip. Elev Updated Type